Time;durP1;ratioP1;P1;durP2;ratioP2;P2;SDS_P1;SDS_P2;PMS_P1;PMS_P2;Temp;Humidity;BMP_temperature;BMP_pressure;BME280_temperature;BME280_humidity;BME280_pressure;Samples;Min_cycle;Max_cycle;Signal;HPM_P1;HPM_P2
2023/04/01 00:01:00;;;;;;;;;;;;;;;8.81;89.08;96853.56;5087812;28;20319;-81
2023/04/01 00:03:26;;;;;;;;;;;;;;;8.78;89.62;96854.13;5089447;28;19999;-82
2023/04/01 00:05:52;;;;;;;;;;;;;;;8.73;89.52;96848.09;5092017;28;19920;-81
2023/04/01 00:08:17;;;;;;;;;;;;;;;8.82;89.34;96852.47;5066634;28;19989;-81
2023/04/01 00:10:43;;;;;;;;;;;;;;;8.75;89.43;96851.25;5069587;28;19931;-81
2023/04/01 00:13:08;;;;;;;;;;;;;;;8.73;89.71;96848.09;5060483;28;19956;-81
2023/04/01 00:15:34;;;;;;;;;;;;;;;8.75;89.61;96846.72;5082512;28;19928;-81
2023/04/01 00:18:00;;;;;;;;;;;;;;;8.82;89.24;96846.38;5064366;28;19916;-82
2023/04/01 00:20:26;;;;;;;;;;;;;;;8.75;88.89;96845.94;5085803;28;20007;-81
2023/04/01 00:22:51;;;;;;;;;;;;;;;8.66;89.91;96853.75;5068405;28;20426;-81
2023/04/01 00:25:16;;;;;;;;;;;;;;;8.75;89.25;96848.59;5082300;28;20015;-81
2023/04/01 00:27:42;;;;;;;;;;;;;;;8.66;90.21;96844.97;5068723;28;19921;-82
2023/04/01 00:30:07;;;;;;;;;;;;;;;8.61;90.08;96853.81;5089959;28;20007;-81
2023/04/01 00:32:33;;;;;;;;;;;;;;;8.75;89.12;96846.72;5089879;28;19922;-81
2023/04/01 00:34:59;;;;;;;;;;;;;;;8.73;89.62;96845.41;5089382;28;19916;-81
2023/04/01 00:37:25;;;;;;;;;;;;;;;8.64;89.95;96850.59;5085841;28;20002;-81
2023/04/01 00:39:50;;;;;;;;;;;;;;;8.75;89.30;96836.09;5087564;28;19913;-81
2023/04/01 00:42:15;;;;;;;;;;;;;;;8.75;89.64;96845.94;5087314;28;19920;-80
2023/04/01 00:44:41;;;;;;;;;;;;;;;8.74;89.76;96839.00;5085339;28;19928;-80
2023/04/01 00:47:06;;;;;;;;;;;;;;;8.57;90.01;96836.84;5070694;28;19923;-80
2023/04/01 00:49:42;;;;;;;;;;;;;;;8.68;89.99;96846.28;5091150;28;19916;-80
2023/04/01 00:52:08;;;;;;;;;;;;;;;8.59;89.76;96840.00;5069424;28;19942;-80
2023/04/01 00:54:34;;;;;;;;;;;;;;;8.71;89.15;96840.41;5091667;28;19947;-80
2023/04/01 00:57:08;;;;;;;;;;;;;;;8.60;90.02;96836.28;5073691;28;19939;-80
2023/04/01 00:59:35;;;;;;;;;;;;;;;8.63;89.87;96838.34;5071169;28;20387;-80
2023/04/01 01:02:02;;;;;;;;;;;;;;;8.63;89.53;96835.69;5088737;28;19936;-80
2023/04/01 01:04:28;;;;;;;;;;;;;;;8.68;89.83;96845.47;5088739;28;19920;-80
2023/04/01 01:07:03;;;;;;;;;;;;;;;8.70;89.47;96838.81;5074293;28;19921;-80
2023/04/01 01:09:28;;;;;;;;;;;;;;;8.67;89.98;96850.00;5087006;28;20438;-80
2023/04/01 01:12:05;;;;;;;;;;;;;;;8.45;90.56;96836.47;5095238;28;20017;-80
2023/04/01 01:14:38;;;;;;;;;;;;;;;8.48;89.78;96845.72;5092677;28;19923;-80
2023/04/01 01:17:12;;;;;;;;;;;;;;;8.60;90.06;96846.13;5089626;28;20409;-80
2023/04/01 01:19:50;;;;;;;;;;;;;;;8.66;89.62;96848.44;5084414;28;19990;-81
2023/04/01 01:22:23;;;;;;;;;;;;;;;8.62;89.73;96847.41;5088726;28;20060;-81
2023/04/01 01:24:56;;;;;;;;;;;;;;;8.71;89.75;96850.25;5071816;28;19917;-81
2023/04/01 01:27:22;;;;;;;;;;;;;;;8.42;89.46;96839.69;5091220;28;19927;-81
2023/04/01 01:29:50;;;;;;;;;;;;;;;8.52;90.34;96839.56;5063317;28;19916;-80
2023/04/01 01:32:22;;;;;;;;;;;;;;;8.43;90.70;96837.81;5075496;28;20333;-80
2023/04/01 01:34:55;;;;;;;;;;;;;;;8.50;89.58;96836.38;5084553;28;19916;-80
2023/04/01 01:37:22;;;;;;;;;;;;;;;8.45;90.06;96836.47;5089576;28;19920;-80
2023/04/01 01:39:54;;;;;;;;;;;;;;;8.55;90.01;96833.69;5084483;28;20011;-80
2023/04/01 01:42:20;;;;;;;;;;;;;;;8.50;90.48;96836.38;5088654;28;20418;-80
2023/04/01 01:44:47;;;;;;;;;;;;;;;8.47;90.46;96833.50;5081384;28;20022;-80
2023/04/01 01:47:13;;;;;;;;;;;;;;;8.55;90.44;96836.34;5074186;28;19931;-80
2023/04/01 01:49:40;;;;;;;;;;;;;;;8.55;89.71;96832.88;5065477;28;19921;-80
2023/04/01 01:52:05;;;;;;;;;;;;;;;8.53;90.10;96838.47;5087714;28;19960;-80
2023/04/01 01:54:31;;;;;;;;;;;;;;;8.60;90.20;96836.28;5066501;28;19921;-80
2023/04/01 01:57:03;;;;;;;;;;;;;;;8.68;89.30;96830.31;5085186;28;20050;-80
2023/04/01 01:59:29;;;;;;;;;;;;;;;8.57;89.54;96836.03;5074635;28;19916;-80
2023/04/01 02:01:56;;;;;;;;;;;;;;;8.60;90.01;96844.25;5090748;28;19924;-80
2023/04/01 02:04:21;;;;;;;;;;;;;;;8.52;89.58;96836.13;5086727;28;19924;-80
2023/04/01 02:06:52;;;;;;;;;;;;;;;8.53;89.78;96837.69;5091142;28;20375;-80
2023/04/01 02:09:18;;;;;;;;;;;;;;;8.48;90.50;96843.84;5088848;28;19916;-80
2023/04/01 02:11:52;;;;;;;;;;;;;;;8.53;89.53;96830.50;5088579;28;19917;-80
2023/04/01 02:14:22;;;;;;;;;;;;;;;8.62;89.53;96839.44;5088222;28;19985;-80
2023/04/01 02:16:47;;;;;;;;;;;;;;;8.61;89.92;96842.38;5071994;28;19920;-80
2023/04/01 02:19:13;;;;;;;;;;;;;;;8.56;89.61;96832.59;5084848;28;19924;-80
2023/04/01 02:21:40;;;;;;;;;;;;;;;8.60;89.63;96846.91;5056050;28;20372;-80
2023/04/01 02:24:07;;;;;;;;;;;;;;;8.39;90.52;96836.81;5070968;28;19924;-80
2023/04/01 02:26:34;;;;;;;;;;;;;;;8.53;90.18;96838.47;5069499;28;19942;-80
2023/04/01 02:29:00;;;;;;;;;;;;;;;8.56;90.27;96832.59;5076274;28;19984;-80
2023/04/01 02:31:26;;;;;;;;;;;;;;;8.56;89.46;96839.78;5071049;28;20291;-80
2023/04/01 02:33:52;;;;;;;;;;;;;;;8.51;89.79;96843.28;5092607;28;19931;-80
2023/04/01 02:36:18;;;;;;;;;;;;;;;8.64;89.79;96845.25;5053118;28;19920;-80
2023/04/01 02:38:44;;;;;;;;;;;;;;;8.11;90.70;96836.53;5065093;28;19974;-80
2023/04/01 02:41:10;;;;;;;;;;;;;;;8.42;90.85;96846.84;5088453;28;20431;-80
2023/04/01 02:43:35;;;;;;;;;;;;;;;8.47;90.33;96842.28;5081314;28;19967;-80
2023/04/01 02:46:01;;;;;;;;;;;;;;;8.33;91.24;96854.66;5059031;28;19928;-80
2023/04/01 02:48:27;;;;;;;;;;;;;;;8.51;90.05;96840.63;5084040;28;19916;-81
2023/04/01 02:50:52;;;;;;;;;;;;;;;8.56;89.23;96848.53;5065430;28;19924;-81
2023/04/01 02:53:17;;;;;;;;;;;;;;;8.54;89.07;96840.06;5069921;28;19976;-80
2023/04/01 02:55:42;;;;;;;;;;;;;;;8.47;90.39;96850.25;5084649;28;20020;-81
2023/04/01 02:58:07;;;;;;;;;;;;;;;8.54;89.40;96848.03;5083852;28;19916;-80
2023/04/01 03:00:33;;;;;;;;;;;;;;;8.58;89.97;96845.63;5087293;28;19920;-81
2023/04/01 03:02:58;;;;;;;;;;;;;;;8.47;89.71;96844.94;5073096;28;19917;-80
2023/04/01 03:05:24;;;;;;;;;;;;;;;8.50;89.31;96841.69;5088201;28;19945;-80
2023/04/01 03:07:49;;;;;;;;;;;;;;;8.32;89.46;96847.78;5066377;28;19963;-80
2023/04/01 03:10:15;;;;;;;;;;;;;;;8.49;89.25;96837.47;5082667;28;19920;-80
2023/04/01 03:12:40;;;;;;;;;;;;;;;8.52;89.97;96846.75;5085645;28;19920;-80
2023/04/01 03:15:06;;;;;;;;;;;;;;;8.58;89.00;96846.41;5067384;28;20002;-80
2023/04/01 03:17:31;;;;;;;;;;;;;;;8.46;89.81;96847.88;5067864;28;20003;-80
2023/04/01 03:19:56;;;;;;;;;;;;;;;8.18;90.17;96841.50;5089906;28;20235;-80
2023/04/01 03:22:21;;;;;;;;;;;;;;;8.24;90.41;96840.38;5087011;28;20446;-80
2023/04/01 03:24:48;;;;;;;;;;;;;;;8.32;90.81;96842.47;5048179;28;19935;-80
2023/04/01 03:27:13;;;;;;;;;;;;;;;8.48;89.75;96841.19;5080230;28;19916;-80
2023/04/01 03:29:39;;;;;;;;;;;;;;;8.27;90.08;96845.16;5061523;28;19916;-80
2023/04/01 03:32:04;;;;;;;;;;;;;;;8.35;89.50;96847.19;5086675;28;19945;-80
2023/04/01 03:34:29;;;;;;;;;;;;;;;8.29;89.64;96851.78;5069894;28;19927;-80
2023/04/01 03:36:55;;;;;;;;;;;;;;;8.39;90.32;96852.75;5088070;28;19920;-80
2023/04/01 03:39:20;;;;;;;;;;;;;;;8.47;89.54;96852.91;5066671;28;20556;-81
2023/04/01 03:41:45;;;;;;;;;;;;;;;8.45;88.89;96859.59;5088493;28;19920;-80
2023/04/01 03:44:11;;;;;;;;;;;;;;;8.43;89.73;96857.19;5061866;28;19935;-81
2023/04/01 03:46:36;;;;;;;;;;;;;;;8.35;89.68;96851.72;5085285;28;19968;-81
2023/04/01 03:49:01;;;;;;;;;;;;;;;8.28;89.64;96854.69;5069334;28;19971;-80
2023/04/01 03:51:27;;;;;;;;;;;;;;;8.35;90.09;96846.41;5051496;28;19921;-81
2023/04/01 03:53:52;;;;;;;;;;;;;;;8.39;89.43;96850.88;5076527;28;19928;-81
2023/04/01 03:56:17;;;;;;;;;;;;;;;8.39;89.72;96845.53;5060070;28;19927;-80
2023/04/01 03:58:42;;;;;;;;;;;;;;;8.39;89.80;96853.53;5066674;28;20011;-81
2023/04/01 04:01:20;;;;;;;;;;;;;;;8.42;89.58;96852.97;5066186;28;20254;-81
2023/04/01 04:03:46;;;;;;;;;;;;;;;8.34;90.53;96850.94;5089210;28;19946;-80
2023/04/01 04:06:12;;;;;;;;;;;;;;;8.40;89.24;96852.47;5069203;28;20153;-80
2023/04/01 04:08:38;;;;;;;;;;;;;;;8.47;89.87;96854.78;5066949;28;19922;-80
2023/04/01 04:11:03;;;;;;;;;;;;;;;8.27;89.79;96858.44;5067318;28;20616;-80
2023/04/01 04:13:28;;;;;;;;;;;;;;;8.30;90.54;96861.31;5067671;28;19923;-81
2023/04/01 04:15:53;;;;;;;;;;;;;;;8.41;90.21;96855.91;5068839;28;19920;-80
2023/04/01 04:18:19;;;;;;;;;;;;;;;8.35;89.89;96863.13;5089639;28;19943;-80
2023/04/01 04:20:50;;;;;;;;;;;;;;;8.33;89.48;96859.97;5092350;28;19920;-80
2023/04/01 04:23:16;;;;;;;;;;;;;;;8.25;90.22;96855.25;5071240;28;21832;-80
2023/04/01 04:25:52;;;;;;;;;;;;;;;8.32;90.55;96854.94;5088581;28;19943;-81
2023/04/01 04:28:17;;;;;;;;;;;;;;;8.17;90.98;96866.47;5093162;28;20394;-80
2023/04/01 04:30:43;;;;;;;;;;;;;;;8.20;90.75;96863.28;5073971;28;19959;-81
2023/04/01 04:33:08;;;;;;;;;;;;;;;8.33;90.15;96859.97;5054675;28;19920;-81
2023/04/01 04:35:33;;;;;;;;;;;;;;;8.12;90.36;96863.91;5089163;28;19924;-80
2023/04/01 04:37:58;;;;;;;;;;;;;;;8.05;90.90;96863.44;5093511;28;19927;-80
2023/04/01 04:40:24;;;;;;;;;;;;;;;8.19;89.94;96869.69;5066175;28;19920;-81
2023/04/01 04:42:49;;;;;;;;;;;;;;;8.21;90.18;96867.53;5081985;28;20050;-81
2023/04/01 04:45:14;;;;;;;;;;;;;;;8.22;90.13;96861.13;5083704;28;19928;-81
2023/04/01 04:47:40;;;;;;;;;;;;;;;8.14;90.55;96861.75;5086313;28;20590;-81
2023/04/01 04:50:05;;;;;;;;;;;;;;;8.26;89.48;96868.28;5067443;28;19966;-81
2023/04/01 04:52:30;;;;;;;;;;;;;;;8.29;89.35;96864.28;5082528;28;20287;-81
2023/04/01 04:54:58;;;;;;;;;;;;;;;8.24;89.72;96861.63;5051777;28;20544;-81
2023/04/01 04:57:23;;;;;;;;;;;;;;;8.20;89.57;96872.03;5066376;28;19950;-81
2023/04/01 04:59:48;;;;;;;;;;;;;;;8.07;89.54;96871.91;5086050;28;19920;-81
2023/04/01 05:02:13;;;;;;;;;;;;;;;8.15;89.73;96874.75;5056642;28;20353;-79
2023/04/01 05:04:39;;;;;;;;;;;;;;;8.19;89.82;96875.75;5065035;28;19925;-80
2023/04/01 05:07:04;;;;;;;;;;;;;;;8.19;90.30;96873.09;5067337;28;19924;-80
2023/04/01 05:09:30;;;;;;;;;;;;;;;8.10;89.62;96874.00;5063839;28;20219;-80
2023/04/01 05:11:55;;;;;;;;;;;;;;;8.14;90.03;96877.69;5082773;28;19919;-80
2023/04/01 05:14:20;;;;;;;;;;;;;;;8.20;89.91;96879.22;5079718;28;20567;-80
2023/04/01 05:16:45;;;;;;;;;;;;;;;8.10;89.74;96882.75;5082881;28;20426;-80
2023/04/01 05:19:10;;;;;;;;;;;;;;;8.21;90.56;96878.16;5065767;28;19935;-80
2023/04/01 05:21:36;;;;;;;;;;;;;;;8.05;89.73;96884.69;5087645;28;19942;-80
2023/04/01 05:24:01;;;;;;;;;;;;;;;8.23;89.45;96881.31;5085821;28;19924;-80
2023/04/01 05:26:26;;;;;;;;;;;;;;;8.27;89.48;96887.69;5083836;28;19927;-79
2023/04/01 05:28:52;;;;;;;;;;;;;;;8.28;89.27;96887.41;5049536;28;19939;-80
2023/04/01 05:31:17;;;;;;;;;;;;;;;8.26;89.54;96891.41;5069230;28;19924;-80
2023/04/01 05:33:42;;;;;;;;;;;;;;;8.25;90.09;96887.16;5082057;28;19921;-80
2023/04/01 05:36:12;;;;;;;;;;;;;;;8.26;89.65;96888.75;5088480;28;19999;-80
2023/04/01 05:38:37;;;;;;;;;;;;;;;8.28;89.34;96889.25;5084033;28;21482;-80
2023/04/01 05:41:03;;;;;;;;;;;;;;;8.30;89.49;96889.75;5084376;28;19924;-80
2023/04/01 05:43:29;;;;;;;;;;;;;;;8.33;89.38;96886.56;5081335;28;20002;-81
2023/04/01 05:45:54;;;;;;;;;;;;;;;8.22;89.49;96880.53;5062995;28;19924;-80
2023/04/01 05:48:20;;;;;;;;;;;;;;;8.15;89.85;96888.03;5061899;28;19943;-80
2023/04/01 05:50:45;;;;;;;;;;;;;;;8.25;90.34;96889.81;5076952;28;19920;-81
2023/04/01 05:53:10;;;;;;;;;;;;;;;8.32;89.17;96888.41;5062476;28;19920;-80
2023/04/01 05:55:36;;;;;;;;;;;;;;;8.29;89.49;96885.53;5081808;28;19917;-80
2023/04/01 05:58:01;;;;;;;;;;;;;;;8.27;89.83;96891.13;5060343;28;19924;-80
2023/04/01 06:00:26;;;;;;;;;;;;;;;8.35;88.96;96895.03;5063875;28;20395;-81
2023/04/01 06:02:52;;;;;;;;;;;;;;;8.11;90.02;96894.97;5067539;28;19925;-80
2023/04/01 06:05:22;;;;;;;;;;;;;;;8.27;88.97;96895.66;5066863;28;19982;-80
2023/04/01 06:07:47;;;;;;;;;;;;;;;8.25;90.13;96887.97;5085471;28;19916;-80
2023/04/01 06:10:14;;;;;;;;;;;;;;;8.31;89.32;96896.69;5058672;28;20026;-80
2023/04/01 06:12:44;;;;;;;;;;;;;;;8.29;89.34;96896.97;5065361;28;20341;-80
2023/04/01 06:15:22;;;;;;;;;;;;;;;8.25;89.29;96900.44;5067419;28;19924;-80
2023/04/01 06:17:57;;;;;;;;;;;;;;;8.34;89.61;96892.66;5083891;28;19916;-80
2023/04/01 06:20:26;;;;;;;;;;;;;;;8.32;89.49;96900.94;5063991;28;19916;-80
2023/04/01 06:22:54;;;;;;;;;;;;;;;8.11;89.78;96896.84;5066945;28;20632;-80
2023/04/01 06:25:50;;;;;;;;;;;;;;;8.21;90.10;96899.41;5083508;28;19920;-80
2023/04/01 06:28:34;;;;;;;;;;;;;;;8.24;89.46;96901.50;5067986;28;19924;-80
2023/04/01 06:31:11;;;;;;;;;;;;;;;8.41;89.25;96906.44;5082852;28;19916;-80
2023/04/01 06:33:46;;;;;;;;;;;;;;;8.38;89.22;96904.31;5089398;28;19927;-80
2023/04/01 06:36:35;;;;;;;;;;;;;;;8.51;89.19;96904.44;5083667;28;20001;-80
2023/04/01 06:39:07;;;;;;;;;;;;;;;8.37;89.29;96914.16;5063591;28;20253;-80
2023/04/01 06:41:39;;;;;;;;;;;;;;;8.28;89.84;96907.84;5071150;28;19923;-80
2023/04/01 06:44:10;;;;;;;;;;;;;;;8.43;90.44;96910.34;5073972;28;20384;-80
2023/04/01 06:46:41;;;;;;;;;;;;;;;8.26;90.81;96907.34;5089421;28;20403;-80
2023/04/01 06:49:13;;;;;;;;;;;;;;;8.49;89.29;96919.88;5067607;28;20407;-80
2023/04/01 06:51:38;;;;;;;;;;;;;;;8.41;89.46;96914.41;5081965;28;19935;-80
2023/04/01 06:54:12;;;;;;;;;;;;;;;8.54;89.35;96914.50;5081397;28;20003;-80
2023/04/01 06:56:40;;;;;;;;;;;;;;;8.55;89.51;96921.41;5065060;28;19926;-80
2023/04/01 06:59:10;;;;;;;;;;;;;;;8.61;89.52;96924.78;5066485;28;19947;-81
2023/04/01 07:01:39;;;;;;;;;;;;;;;8.60;88.86;96918.72;5088636;28;19922;-80
2023/04/01 07:04:10;;;;;;;;;;;;;;;8.55;89.75;96924.06;5084048;28;19928;-80
2023/04/01 07:06:46;;;;;;;;;;;;;;;8.58;89.03;96920.06;5087941;28;19920;-80
2023/04/01 07:09:22;;;;;;;;;;;;;;;8.71;88.25;96933.47;5081230;28;19924;-80
2023/04/01 07:11:48;;;;;;;;;;;;;;;8.66;88.93;96922.88;5057215;28;19970;-80
2023/04/01 07:14:13;;;;;;;;;;;;;;;8.63;89.30;96927.97;5084700;28;19956;-80
2023/04/01 07:16:51;;;;;;;;;;;;;;;8.78;88.91;96925.16;5087936;28;19923;-81
2023/04/01 07:19:30;;;;;;;;;;;;;;;8.76;88.38;96922.75;5089459;28;19969;-81
2023/04/01 07:22:05;;;;;;;;;;;;;;;8.66;88.96;96927.41;5082730;28;20530;-80
2023/04/01 07:24:35;;;;;;;;;;;;;;;8.78;88.82;96920.63;5087949;28;19935;-81
2023/04/01 07:27:01;;;;;;;;;;;;;;;8.75;89.50;96929.19;5069125;28;20349;-81
2023/04/01 07:29:26;;;;;;;;;;;;;;;8.67;89.92;96929.78;5053665;28;19921;-81
2023/04/01 07:32:10;;;;;;;;;;;;;;;8.82;88.44;96932.25;5061722;28;19927;-80
2023/04/01 07:34:46;;;;;;;;;;;;;;;8.78;88.64;96925.94;5079069;28;19924;-81
2023/04/01 07:37:17;;;;;;;;;;;;;;;8.80;88.70;96933.66;5057054;28;20372;-81
2023/04/01 07:39:45;;;;;;;;;;;;;;;8.97;88.36;96939.28;5088087;28;20354;-80
2023/04/01 07:42:23;;;;;;;;;;;;;;;8.91;88.66;96921.81;5069082;28;20332;-80
2023/04/01 07:44:57;;;;;;;;;;;;;;;8.91;87.98;96935.88;5087542;28;20280;-80
2023/04/01 07:47:33;;;;;;;;;;;;;;;8.78;89.66;96933.91;5085703;28;19966;-81
2023/04/01 07:50:07;;;;;;;;;;;;;;;8.89;88.72;96943.38;5072323;28;20069;-81
